This site, now in its 15th season, is a labour of love and fun from one of Ottawa's most avid time trialists and number crunchers. It adheres to and is permitted by the laws of Canada, promotes the objectives of every bicycle club whose results are shown, and is donated free of charge by myself for your enjoyment and usage. If you would like results from series you ride in to be shown here, give me (celia@drmath.ca) a shout!


Index Page
ATT OTT WTT AATT CFCTT VVVTT
Help resultformat:
Case-sensitive

OBC Open TT Series - 1993-Aug-26 - 15km (Rockliffe Pkwy) (EvtFactor = 0.9208)

Weather (18:00): Mainly Clear. Temp.: 31.7C, Humidity: 41%, DewPoint: 16.7C, Wind: WSW 9km/h, Pressure: 100.44kPa, Visibility: 24.1km, Humidex: 37.
Weather (19:00): Mainly Clear. Temp.: 30.5C, Humidity: 44%, DewPoint: 17.0C, Wind: SW 7km/h, Pressure: 100.44kPa, Visibility: 24.1km, Humidex: 36.
Weather (20:00): Mainly Clear. Temp.: 27.0C, Humidity: 55%, DewPoint: 17.2C, Wind: S 11km/h, Pressure: 100.44kPa, Visibility: 32.2km, Humidex: 32.

Send photos with description (when/where/what) of yourself on or off of bike to celia@drmath.ca

 
 

BESTS?
 
1 Roy, Patrick OBC 19:56 45.151 1/63 OVAM 1/14 0.9752
2 Hlady, Marc --- 19:59 45.038 2/63 XXM 1/5  
A 3 Simpson, Bob OBC 20:19 44.299 3/63 OVBM 1/11 1.0349
4 Cowan, Norman  OBC 20:23 44.154 4/63 OVAM 2/14 0.9733
5 Field, Kevin --- 20:29 43.938 5/63 OSEM 1/22 1.0521
6 Redding, Neil OBC 20:30 43.902 6/63 OVAM 3/14 0.9567
7 Parkin, Brian --- 20:45 43.373 7/63 OVAM 4/14 0.9690
8 Burge, Craig  --- 20:53 43.097 8/63 OSEM 2/22 0.9073
9 Morewood, Arthur OBC 21:04 42.722 9/63 OVBM 2/11 0.9835
10 Bachman, Paul --- 21:08 42.587 10/63 OSEM 3/22 0.9172
11 Fraser, Ian OBC 21:15 42.353 11/63 OSEM 4/22 0.8912
12 Morvan, Jacques  OBC 21:23 42.089 12/63 OVBM 3/11 0.9883
13 MacMillan, Trevor --- 21:26 41.991 13/63 OSEM 5/22 1.1749
14 Martignago, Mike OBC 21:28 41.925 14/63 OSEM 6/22 0.9792
15 Odermatt, Daniel OBC 21:38 41.602 15/63 OSEM 7/22 0.9908
16 Fairhead, Denis OBC 21:45 41.379 16/63 OVAM 5/14 0.9727
17 Moerman, Bram  OBC 21:46 41.348 17/63 OVBM 4/11 0.9174
18 Krausbar, Gunther OBC 21:48 41.284 18/63 OSEM 8/22 1.0115
19 Bence, John OBC 21:50 41.221 19/63 OSEM 9/22 0.9728
20 Johns, Mike --- 21:54 41.096 20/63 OSEM 10/22 0.9594
21 Leach, Mike --- 21:56 41.033 21/63 OSEM 11/22 0.9223
s 22 Pazdzior, Ellen  OBC 22:18 40.359 22/63 OVAF 1/4 1.0135
23 Franks, Greg OBC 22:34 39.882 23/63 OSEM 12/22 1.0111
24 Pritlove, James OBC 22:36 39.823 24/63 OSEM 13/22 1.0517
25 Stuart, Ian --- 22:40 39.706 25/63 XXM 2/5 0.9759
26 Glover, Jim  --- 22:43 39.618 26/63 OVAM 6/14 0.9207
27 Hicks, Bob  OBC 22:45 39.560 27/63 OVBM 5/11 1.4557
28 Montemurro, Mike --- 22:50 39.416 28/63 OSEM 14/22 1.0856
29 Montpetit, Stephane OBC 22:54 39.301 29/63 OSEM 15/22 0.9318
30 Archambault, Marc OBC 22:58 39.187 30/63 OSEM 16/22 0.7700
31 Beasley, Graham --- 23:03 39.046 31/63 OVBM 6/11 0.9384
Smallwood, Steve OBC 23:03 39.046 31/63 OVAM 7/14 0.9700
33 Romkey, Gary OBC 23:05 38.989 33/63 OVBM 7/11 1.0462
34 Benoit, Jean-Marc --- 23:06 38.961 34/63 XXM 3/5  
35 Bachman, Mike --- 23:09 38.877 35/63 OVBM 8/11 0.9019
36 Padilla, Alberto --- 23:10 38.849 36/63 OVAM 8/14 0.9366
37 Callahan, Luc OBC 23:19 38.599 37/63 OSEM 17/22 0.9309
Ménard, Monique OBC 23:19 38.599 37/63 OSEF 1/2 0.9515
39 Hiscocks, Roger --- 23:20 38.571 39/63 OVBM 9/11 1.0435
Shadeed, Charles OBC 23:20 38.571 39/63 OVAM 9/14 0.9851
41 Gilchrist, Ryan  OBC 23:45 37.895 41/63 OSEM 18/22 0.9958
42 Boileau, Greg OBC 23:47 37.842 42/63 OJUM 1/1 0.9363
43 Anderson, Allan OBC 24:11 37.216 43/63 OVAM 10/14 0.9235
44 Davison, Peter OBC 24:12 37.190 44/63 OVBM 10/11 1.0208
45 Stewart, Rob --- 24:19 37.012 45/63 OVAM 11/14 1.0104
46 Boissonneault, France OBC 24:20 36.986 46/63 OSEF 2/2 0.9695
47 Revesz, Erika  OBC 24:23 36.910 47/63 OVAF 2/4 0.8411
48 Atkinson, John OBC 24:37 36.561 48/63 OVAM 12/14 0.9095
49 Taylor, Doug --- 24:39 36.511 49/63 OVAM 13/14 1.0143
50 McInnis, Celia  OBC 24:53 36.169 50/63 OVAF 3/4 0.9761
51 Aller, Mo OBC 25:04 35.904 51/63 OVCM 1/1 1.0261
52 Butler, Samuel --- 25:08 35.809 52/63 XXM 4/5  
53 Ghadban, Zeus --- 25:11 35.738 53/63 OSEM 19/22 1.0608
54 Hagan, Zeke --- 25:33 35.225 54/63 XXM 5/5  
55 Chen, Jonathan --- 25:41 35.042 55/63 OSEM 20/22 0.6400
56 James, Peter OBC 25:44 34.974 56/63 OVAM 14/14 0.9922
57 Ajersch, Mary  OBC 25:51 34.816 57/63 OVBF 1/2 0.8759
58 Hays, Ryan OBC 26:12 34.351 58/63 U18M 1/1 0.7670
59 Lapner, Peter --- 26:29 33.984 59/63 OSEM 21/22  
60 FitzGerald, Dennis --- 26:30 33.962 60/63 OVBM 11/11 0.8875
61 Montserrat, Fabienne OBC 27:32 32.688 61/63 OVAF 4/4 0.8949
62 Gerber, Rosmarie OBC 28:21 31.746 62/63 OVBF 2/2 0.8527
63 Westwood, Chris --- 29:43 30.286 63/63 OSEM 22/22 0.2950
 
Average Speed of all of the above 63 finishes (945km in 24:25:52):38.680
>>>Average of the Average Speeds for these 63 finishes38.974<<<
 

The number of data records shown above is 63
The server processing of your query took: 1 wallclock secs ( 0.15 usr + 0.02 sys = 0.17 CPU)

Thanks to our Helpers: Eric Smart, Chris Georgas.

     


Apr 9 (Good Friday) Apr 15 Apr 22 (cancelled) Apr 27 Apr 29
May 4 (10km) May 6 May 11 May 11 (10km) May 13 (22km) May 16 (40km) May 18 May 18 (10km) May 20 May 25 May 25 (10km) May 27 (38km) May 30 (40km)
Jun 1 Jun 3 Jun 8 Jun 10 (22km) Jun 15 Jun 17 Jun 22 Jun 22 Jun 24 (38km) Jun 25 Jun 27 (40km/80km) Jun 29 Jun 29 Jun 30
Jul 6 Jul 6 Jul 8 Jul 13 Jul 13 Jul 15 (38km) Jul 20 Jul 20 Jul 22 Jul 25 (80km) Jul 27 Jul 29 (22km)
Aug 3 Aug 3 Aug 5 Aug 7 (38km) Aug 10 Aug 10 Aug 12 Aug 15 (40km/80km) Aug 17 Aug 19 Aug 21 (22km) Aug 24 Aug 24
  Aug 26  
Aug 29 (40km) Aug 31 (Invitational)
Sep 2 Sep 7 Sep 9 Sep 14 Sep 16 Sep 25 (40km)

OTT Rankings
Best       Best by category
WTT Rankings for OBC Members
5 Best 15km     5 Best 15km by category
OBC Member Best Three 15km Rankings
Overall     by category
OBC BAR Ranking
Overall     by category     Rider "Consistency-Graph"
ABC BAR Ranking
Overall     by category     Rider "Consistency-Graph"
Other years
TT Calculator All TT People All TT events
ABC Home VVV Home
CKAP GOLD MEDAL
Other Links

Please send your comments and suggestions to: Celia McInnis
Copyright © 1998-2011 Celia McInnis. All rights reserved. Links are welcomed.